Time;durP1;ratioP1;P1;durP2;ratioP2;P2;SDS_P1;SDS_P2;PMS_P1;PMS_P2;Temp;Humidity;BMP_temperature;BMP_pressure;BME280_temperature;BME280_humidity;BME280_pressure;Samples;Min_cycle;Max_cycle;Signal;HPM_P1;HPM_P2
2024/02/01 00:02:12;;;;;;;9.20;6.60;;;;;;;;;;5060186;28;20075;-85
2024/02/01 00:04:39;;;;;;;11.23;6.53;;;;;;;;;;5057909;28;20053;-84
2024/02/01 00:07:05;;;;;;;12.80;7.05;;;;;;;;;;5052984;28;20059;-83
2024/02/01 00:09:32;;;;;;;12.27;6.38;;;;;;;;;;5040402;28;20787;-86
2024/02/01 00:11:59;;;;;;;10.82;7.20;;;;;;;;;;5058353;28;20107;-85
2024/02/01 00:14:26;;;;;;;13.43;6.40;;;;;;;;;;5041555;28;20129;-85
2024/02/01 00:16:53;;;;;;;12.93;6.80;;;;;;;;;;5041007;28;20053;-85
2024/02/01 00:19:19;;;;;;;12.00;6.43;;;;;;;;;;5040639;28;20064;-85
2024/02/01 00:21:46;;;;;;;9.50;5.50;;;;;;;;;;5055365;28;20111;-84
2024/02/01 00:24:13;;;;;;;10.85;6.53;;;;;;;;;;5039209;28;20052;-85
2024/02/01 00:26:40;;;;;;;10.88;5.93;;;;;;;;;;5043067;28;20167;-85
2024/02/01 00:29:06;;;;;;;9.27;5.80;;;;;;;;;;5059670;28;20083;-86
2024/02/01 00:31:33;;;;;;;13.25;7.88;;;;;;;;;;5057543;28;20478;-85
2024/02/01 00:33:59;;;;;;;10.48;6.60;;;;;;;;;;5042673;28;20083;-86
2024/02/01 00:36:26;;;;;;;10.80;6.13;;;;;;;;;;5057638;28;20053;-86
2024/02/01 00:38:53;;;;;;;8.70;5.90;;;;;;;;;;5040487;28;20134;-86
2024/02/01 00:41:20;;;;;;;9.20;5.88;;;;;;;;;;5053750;28;20128;-85
2024/02/01 00:43:47;;;;;;;10.15;5.20;;;;;;;;;;5041753;28;20057;-84
2024/02/01 00:46:14;;;;;;;11.90;5.68;;;;;;;;;;5059757;28;20060;-84
2024/02/01 00:48:41;;;;;;;11.25;4.78;;;;;;;;;;5059552;28;20049;-84
2024/02/01 00:51:08;;;;;;;8.57;5.22;;;;;;;;;;5044058;28;20069;-85
2024/02/01 00:53:34;;;;;;;12.90;7.07;;;;;;;;;;5062619;28;20041;-85
2024/02/01 00:56:01;;;;;;;9.55;6.38;;;;;;;;;;5062988;28;20064;-86
2024/02/01 00:58:28;;;;;;;11.38;6.78;;;;;;;;;;5042572;28;20125;-84
2024/02/01 01:00:54;;;;;;;14.52;9.38;;;;;;;;;;5058458;28;20569;-84
2024/02/01 01:03:21;;;;;;;16.63;8.90;;;;;;;;;;5057515;28;20056;-84
2024/02/01 01:05:48;;;;;;;20.23;9.82;;;;;;;;;;5035048;28;20061;-84
2024/02/01 01:08:16;;;;;;;14.27;7.95;;;;;;;;;;5058812;28;20115;-84
2024/02/01 01:10:43;;;;;;;15.18;8.23;;;;;;;;;;5043134;28;20056;-84
2024/02/01 01:13:10;;;;;;;14.88;8.80;;;;;;;;;;5059370;28;20617;-84
2024/02/01 01:15:36;;;;;;;9.35;5.97;;;;;;;;;;5058996;28;20045;-84
2024/02/01 01:18:03;;;;;;;9.20;5.63;;;;;;;;;;5042771;28;20116;-84
2024/02/01 01:20:30;;;;;;;7.57;5.55;;;;;;;;;;5054470;28;20049;-84
2024/02/01 01:22:56;;;;;;;8.55;5.28;;;;;;;;;;5058455;28;20408;-83
2024/02/01 01:25:23;;;;;;;10.00;6.55;;;;;;;;;;5058183;28;20151;-82
2024/02/01 01:27:49;;;;;;;8.10;5.43;;;;;;;;;;5058049;28;20104;-83
2024/02/01 01:30:16;;;;;;;8.93;5.68;;;;;;;;;;5041536;28;20474;-83
2024/02/01 01:32:43;;;;;;;11.18;5.90;;;;;;;;;;5041603;28;20063;-83
2024/02/01 01:35:09;;;;;;;10.32;6.00;;;;;;;;;;5054261;28;20111;-83
2024/02/01 01:37:36;;;;;;;10.48;5.82;;;;;;;;;;5056796;28;20143;-85
2024/02/01 01:40:04;;;;;;;10.98;6.25;;;;;;;;;;5041353;28;20049;-84
2024/02/01 01:42:30;;;;;;;10.38;6.45;;;;;;;;;;5075563;28;20063;-84
2024/02/01 01:44:57;;;;;;;11.55;6.38;;;;;;;;;;5057844;28;20056;-84
2024/02/01 01:47:24;;;;;;;10.55;5.88;;;;;;;;;;5040947;28;20052;-83
2024/02/01 01:49:50;;;;;;;7.43;5.57;;;;;;;;;;5057760;28;20056;-83
2024/02/01 01:52:17;;;;;;;9.80;6.45;;;;;;;;;;5056803;28;20075;-84
2024/02/01 01:54:44;;;;;;;11.70;5.80;;;;;;;;;;5057093;28;20128;-82
2024/02/01 01:57:10;;;;;;;7.68;5.70;;;;;;;;;;5040261;28;20088;-82
2024/02/01 01:59:37;;;;;;;11.50;6.25;;;;;;;;;;5057276;28;20061;-82
2024/02/01 02:02:04;;;;;;;9.63;5.90;;;;;;;;;;5040921;28;20400;-84
2024/02/01 02:04:30;;;;;;;12.05;5.88;;;;;;;;;;5040454;28;20049;-84
2024/02/01 02:06:57;;;;;;;7.72;5.15;;;;;;;;;;5041582;28;20064;-85
2024/02/01 02:09:23;;;;;;;9.57;6.07;;;;;;;;;;5038916;28;20148;-85
2024/02/01 02:11:50;;;;;;;11.30;6.45;;;;;;;;;;5041201;28;20100;-84
2024/02/01 02:14:17;;;;;;;10.75;5.65;;;;;;;;;;5041779;28;20048;-85
2024/02/01 02:16:43;;;;;;;9.48;5.68;;;;;;;;;;5057824;28;20110;-84
2024/02/01 02:19:10;;;;;;;9.52;5.55;;;;;;;;;;5057680;28;20097;-85
2024/02/01 02:21:43;;;;;;;8.35;5.72;;;;;;;;;;5041733;28;20053;-84
2024/02/01 02:24:10;;;;;;;9.25;5.00;;;;;;;;;;5057967;28;20136;-84
2024/02/01 02:26:37;;;;;;;7.95;5.05;;;;;;;;;;5059379;28;20045;-84
2024/02/01 02:29:03;;;;;;;7.95;5.40;;;;;;;;;;5077014;28;20080;-85
2024/02/01 02:31:30;;;;;;;9.30;4.97;;;;;;;;;;5078283;28;20057;-86
2024/02/01 02:33:57;;;;;;;6.55;4.80;;;;;;;;;;5078180;28;20040;-87
2024/02/01 02:36:25;;;;;;;10.82;5.05;;;;;;;;;;5062826;28;20083;-85
2024/02/01 02:38:51;;;;;;;7.82;5.40;;;;;;;;;;5039230;28;20110;-85
2024/02/01 02:41:18;;;;;;;8.90;5.63;;;;;;;;;;5053071;28;20056;-85
2024/02/01 02:43:45;;;;;;;10.18;5.63;;;;;;;;;;5057601;28;20049;-84
2024/02/01 02:46:12;;;;;;;8.63;5.03;;;;;;;;;;5038652;28;20068;-86
2024/02/01 02:48:38;;;;;;;6.07;4.88;;;;;;;;;;5038070;28;20057;-85
2024/02/01 02:51:05;;;;;;;10.65;4.63;;;;;;;;;;5056448;28;20422;-84
2024/02/01 02:53:32;;;;;;;10.70;5.60;;;;;;;;;;5040658;28;20084;-85
2024/02/01 02:55:58;;;;;;;7.93;4.43;;;;;;;;;;5040537;28;20053;-84
2024/02/01 02:58:25;;;;;;;7.47;4.15;;;;;;;;;;5040694;28;20080;-84
2024/02/01 03:00:52;;;;;;;5.57;4.50;;;;;;;;;;5059034;28;20079;-85
2024/02/01 03:03:18;;;;;;;6.97;4.03;;;;;;;;;;5058347;28;20550;-85
2024/02/01 03:05:45;;;;;;;5.22;3.90;;;;;;;;;;5058253;28;20064;-84
2024/02/01 03:08:12;;;;;;;5.95;4.20;;;;;;;;;;5041571;28;20053;-84
2024/02/01 03:10:38;;;;;;;7.00;3.70;;;;;;;;;;5041210;28;20041;-84
2024/02/01 03:13:11;;;;;;;6.20;3.42;;;;;;;;;;5041582;28;20048;-84
2024/02/01 03:15:37;;;;;;;7.32;4.07;;;;;;;;;;5057781;28;20088;-85
2024/02/01 03:18:05;;;;;;;5.90;3.30;;;;;;;;;;5058035;28;20076;-84
2024/02/01 03:20:32;;;;;;;7.45;3.88;;;;;;;;;;5041084;28;20049;-85
2024/02/01 03:22:58;;;;;;;6.95;3.53;;;;;;;;;;5042762;28;20140;-84
2024/02/01 03:25:28;;;;;;;5.95;3.65;;;;;;;;;;5040808;28;20567;-85
2024/02/01 03:28:00;;;;;;;7.53;3.28;;;;;;;;;;5059945;28;20076;-85
2024/02/01 03:30:28;;;;;;;4.22;3.13;;;;;;;;;;5041983;28;20059;-85
2024/02/01 03:32:55;;;;;;;5.68;3.05;;;;;;;;;;5058371;28;20059;-85
2024/02/01 03:35:22;;;;;;;4.70;3.22;;;;;;;;;;5041201;28;20084;-85
2024/02/01 03:37:49;;;;;;;6.13;3.17;;;;;;;;;;5057899;28;20091;-85
2024/02/01 03:40:18;;;;;;;4.60;3.10;;;;;;;;;;5040744;28;20087;-86
2024/02/01 03:42:46;;;;;;;3.60;2.78;;;;;;;;;;5058576;28;20092;-85
2024/02/01 03:45:13;;;;;;;5.60;3.13;;;;;;;;;;5061039;28;20060;-85
2024/02/01 03:47:40;;;;;;;4.05;2.90;;;;;;;;;;5040144;28;20106;-85
2024/02/01 03:50:08;;;;;;;7.50;3.22;;;;;;;;;;5056261;28;20055;-85
2024/02/01 03:52:37;;;;;;;6.28;3.53;;;;;;;;;;5038564;28;20045;-85
2024/02/01 03:55:04;;;;;;;3.55;2.35;;;;;;;;;;5037257;28;20128;-84
2024/02/01 03:57:31;;;;;;;4.60;3.22;;;;;;;;;;5053368;28;20049;-84
2024/02/01 03:59:58;;;;;;;3.95;2.80;;;;;;;;;;5052643;28;20102;-85
2024/02/01 04:02:25;;;;;;;3.75;2.85;;;;;;;;;;5052398;28;20053;-84
2024/02/01 04:04:52;;;;;;;4.82;2.97;;;;;;;;;;5035539;28;20057;-83
2024/02/01 04:07:19;;;;;;;6.57;3.58;;;;;;;;;;5048614;28;20060;-87
2024/02/01 04:09:49;;;;;;;4.28;3.20;;;;;;;;;;5037469;28;20053;-87
2024/02/01 04:12:16;;;;;;;5.45;3.17;;;;;;;;;;5046078;28;20540;-88
2024/02/01 04:14:42;;;;;;;8.05;2.92;;;;;;;;;;5034318;28;20059;-85
2024/02/01 04:17:09;;;;;;;5.10;2.97;;;;;;;;;;5056265;28;20083;-84
2024/02/01 04:19:36;;;;;;;4.47;2.83;;;;;;;;;;5039112;28;20049;-84
2024/02/01 04:22:03;;;;;;;6.28;3.83;;;;;;;;;;5039812;28;20052;-84
2024/02/01 04:24:29;;;;;;;6.00;3.20;;;;;;;;;;5055373;28;20562;-85
2024/02/01 04:26:56;;;;;;;5.82;3.28;;;;;;;;;;5047992;28;20049;-83
2024/02/01 04:29:23;;;;;;;6.25;3.17;;;;;;;;;;5038321;28;20041;-84
2024/02/01 04:31:50;;;;;;;4.68;2.75;;;;;;;;;;5037948;28;20080;-84
2024/02/01 04:34:16;;;;;;;6.55;3.28;;;;;;;;;;5036509;28;20502;-85
2024/02/01 04:36:44;;;;;;;6.70;3.63;;;;;;;;;;5037610;28;20072;-83
2024/02/01 04:39:11;;;;;;;3.97;3.17;;;;;;;;;;5053751;28;20069;-83
2024/02/01 04:41:40;;;;;;;6.40;2.88;;;;;;;;;;5054029;28;20502;-85
2024/02/01 04:44:07;;;;;;;8.18;3.40;;;;;;;;;;5055012;28;20053;-84
2024/02/01 04:46:34;;;;;;;4.43;2.90;;;;;;;;;;5052055;28;20052;-84
2024/02/01 04:49:02;;;;;;;5.38;2.92;;;;;;;;;;5034132;28;20069;-84
2024/02/01 04:51:31;;;;;;;4.72;2.88;;;;;;;;;;5035816;28;20104;-83
2024/02/01 04:53:58;;;;;;;6.07;3.17;;;;;;;;;;5047199;28;20079;-85
2024/02/01 04:56:24;;;;;;;5.22;2.92;;;;;;;;;;5039473;28;20053;-82
2024/02/01 04:58:51;;;;;;;3.65;2.70;;;;;;;;;;5048538;28;20076;-83
2024/02/01 05:01:18;;;;;;;6.78;3.05;;;;;;;;;;5050608;28;20081;-83
2024/02/01 05:03:45;;;;;;;6.40;3.60;;;;;;;;;;5056136;28;20057;-82
2024/02/01 05:06:12;;;;;;;4.22;3.42;;;;;;;;;;5069156;28;20048;-81
2024/02/01 05:08:39;;;;;;;4.00;3.10;;;;;;;;;;5049273;28;20053;-81
2024/02/01 05:11:10;;;;;;;6.72;3.50;;;;;;;;;;5049156;28;20056;-81
2024/02/01 05:13:37;;;;;;;7.35;4.03;;;;;;;;;;5056312;28;20590;-82
2024/02/01 05:16:04;;;;;;;4.78;2.92;;;;;;;;;;5039928;28;20099;-81
2024/02/01 05:18:30;;;;;;;3.90;2.70;;;;;;;;;;5053119;28;20083;-81
2024/02/01 05:20:57;;;;;;;3.58;2.55;;;;;;;;;;5062633;28;20048;-81
2024/02/01 05:23:24;;;;;;;4.10;1.95;;;;;;;;;;5052841;28;20066;-81
2024/02/01 05:25:50;;;;;;;4.85;2.78;;;;;;;;;;5070194;28;20085;-81
2024/02/01 05:28:18;;;;;;;3.05;2.22;;;;;;;;;;5061389;28;20084;-81
2024/02/01 05:30:44;;;;;;;6.25;2.47;;;;;;;;;;5041735;28;20080;-81
2024/02/01 05:33:11;;;;;;;4.30;2.17;;;;;;;;;;5041448;28;20049;-81
2024/02/01 05:35:38;;;;;;;4.40;2.53;;;;;;;;;;5041105;28;20144;-82
2024/02/01 05:38:08;;;;;;;1.85;1.70;;;;;;;;;;5057681;28;20067;-82
2024/02/01 05:40:36;;;;;;;4.10;2.33;;;;;;;;;;5058350;28;20470;-81
2024/02/01 05:43:03;;;;;;;2.58;1.90;;;;;;;;;;5054892;28;20056;-81
2024/02/01 05:45:30;;;;;;;3.28;2.28;;;;;;;;;;5070560;28;20063;-82
2024/02/01 05:47:58;;;;;;;4.15;2.05;;;;;;;;;;5078471;28;20049;-82
2024/02/01 05:50:26;;;;;;;5.97;2.28;;;;;;;;;;5039783;28;20056;-82
2024/02/01 05:52:52;;;;;;;5.22;2.42;;;;;;;;;;5040393;28;20071;-82
2024/02/01 05:55:19;;;;;;;2.83;2.00;;;;;;;;;;5040148;28;20084;-82
2024/02/01 05:57:46;;;;;;;3.47;2.35;;;;;;;;;;5057415;28;20059;-82
2024/02/01 06:00:19;;;;;;;3.05;2.47;;;;;;;;;;5044244;28;20080;-82
2024/02/01 06:02:46;;;;;;;3.95;2.63;;;;;;;;;;5060841;28;20056;-83
2024/02/01 06:05:13;;;;;;;5.88;2.55;;;;;;;;;;5061515;28;20091;-83
2024/02/01 06:07:40;;;;;;;3.63;2.70;;;;;;;;;;5039964;28;20071;-83
2024/02/01 06:10:07;;;;;;;4.30;2.75;;;;;;;;;;5058657;28;20045;-83
2024/02/01 06:12:37;;;;;;;3.78;2.85;;;;;;;;;;5058451;28;20131;-84
2024/02/01 06:15:05;;;;;;;3.85;3.03;;;;;;;;;;5042835;28;20049;-84
2024/02/01 06:17:32;;;;;;;4.28;3.08;;;;;;;;;;5073029;28;20089;-84
2024/02/01 06:19:59;;;;;;;10.68;4.05;;;;;;;;;;5058137;28;20131;-85
2024/02/01 06:22:26;;;;;;;19.65;9.77;;;;;;;;;;5037919;28;20135;-85
2024/02/01 06:24:52;;;;;;;12.80;6.30;;;;;;;;;;5034990;28;20463;-85
2024/02/01 06:27:19;;;;;;;9.40;4.40;;;;;;;;;;5043483;28;20053;-86
2024/02/01 06:29:46;;;;;;;7.88;3.55;;;;;;;;;;5053201;28;20045;-86
2024/02/01 06:32:19;;;;;;;5.63;3.30;;;;;;;;;;5055061;28;20051;-86
2024/02/01 06:34:54;;;;;;;5.53;3.25;;;;;;;;;;5037089;28;20451;-84
2024/02/01 06:37:21;;;;;;;5.97;3.80;;;;;;;;;;5052368;28;20057;-86
2024/02/01 06:40:10;;;;;;;6.72;4.10;;;;;;;;;;5051877;28;20084;-84
2024/02/01 06:42:54;;;;;;;7.63;3.97;;;;;;;;;;5055765;28;20060;-84
2024/02/01 06:45:32;;;;;;;5.75;4.38;;;;;;;;;;5037883;28;20502;-83
2024/02/01 06:48:09;;;;;;;7.85;4.05;;;;;;;;;;5054026;28;20048;-83
2024/02/01 06:50:54;;;;;;;6.40;4.28;;;;;;;;;;5038716;28;20418;-84
2024/02/01 06:53:23;;;;;;;5.93;4.38;;;;;;;;;;5051535;28;20044;-84
2024/02/01 06:56:18;;;;;;;6.50;3.95;;;;;;;;;;5029630;28;20053;-84
2024/02/01 06:58:49;;;;;;;4.45;3.88;;;;;;;;;;5051569;28;20132;-84
2024/02/01 07:04:15;;;;;;;6.70;4.00;;;;;;;;;;5050568;28;20526;-86
2024/02/01 07:07:04;;;;;;;6.03;4.05;;;;;;;;;;5049299;28;20473;-86
2024/02/01 07:09:38;;;;;;;8.38;4.50;;;;;;;;;;5050745;28;20521;-85
2024/02/01 07:12:18;;;;;;;6.57;4.90;;;;;;;;;;5050098;28;20044;-85
2024/02/01 07:15:09;;;;;;;8.57;5.15;;;;;;;;;;5051325;28;20068;-86
2024/02/01 07:17:32;;;;;;;10.18;5.40;;;;;;;;;;5067265;28;20132;-86
2024/02/01 07:20:05;;;;;;;6.00;4.25;;;;;;;;;;5064272;28;20106;-86
2024/02/01 07:22:35;;;;;;;7.35;4.25;;;;;;;;;;5057942;28;20116;-85
2024/02/01 07:25:10;;;;;;;9.07;4.53;;;;;;;;;;5056035;28;20050;-82
2024/02/01 07:57:57;;;;;;;5.75;3.25;;;;;;;;;;5071833;28;20053;-81
2024/02/01 08:00:33;;;;;;;5.25;3.05;;;;;;;;;;5071655;28;20079;-80
2024/02/01 08:03:11;;;;;;;9.88;3.78;;;;;;;;;;5061681;28;20056;-81
2024/02/01 08:08:25;;;;;;;8.13;3.42;;;;;;;;;;5066105;28;20065;-82
2024/02/01 08:10:57;;;;;;;8.23;3.35;;;;;;;;;;5046364;28;20068;-83
2024/02/01 08:13:24;;;;;;;4.07;2.63;;;;;;;;;;5056428;28;20073;-82
2024/02/01 08:15:52;;;;;;;3.88;2.75;;;;;;;;;;5040263;28;20053;-81
2024/02/01 08:18:19;;;;;;;4.47;2.38;;;;;;;;;;5056833;28;20053;-83
2024/02/01 08:20:46;;;;;;;2.58;2.00;;;;;;;;;;5038129;28;20057;-83
2024/02/01 08:23:18;;;;;;;5.65;2.50;;;;;;;;;;5061929;28;20522;-84
2024/02/01 08:25:49;;;;;;;5.07;2.37;;;;;;;;;;5041970;28;20057;-82
2024/02/01 08:28:16;;;;;;;6.13;2.20;;;;;;;;;;5040678;28;20291;-83
2024/02/01 08:30:45;;;;;;;5.78;2.35;;;;;;;;;;5037101;28;20060;-81
2024/02/01 08:33:20;;;;;;;2.75;1.90;;;;;;;;;;5049002;28;20838;-81
2024/02/01 08:35:47;;;;;;;6.50;2.30;;;;;;;;;;5036740;28;20114;-80
2024/02/01 08:38:17;;;;;;;1.90;1.55;;;;;;;;;;5045904;28;20045;-78
2024/02/01 08:40:44;;;;;;;4.25;1.90;;;;;;;;;;5049812;28;20061;-79
2024/02/01 08:43:12;;;;;;;3.08;1.60;;;;;;;;;;5052568;28;20551;-83
2024/02/01 08:45:44;;;;;;;3.15;1.85;;;;;;;;;;5049041;28;20059;-84
2024/02/01 08:48:12;;;;;;;1.83;1.60;;;;;;;;;;5074913;28;20053;-82
2024/02/01 08:50:42;;;;;;;2.13;1.40;;;;;;;;;;5044059;28;20061;-81
2024/02/01 08:53:11;;;;;;;2.55;1.30;;;;;;;;;;5056521;28;20052;-81
2024/02/01 08:55:41;;;;;;;3.58;2.03;;;;;;;;;;5044318;28;20057;-81
2024/02/01 08:58:08;;;;;;;3.55;1.80;;;;;;;;;;5043876;28;20085;-81
2024/02/01 09:00:36;;;;;;;2.45;1.92;;;;;;;;;;5056958;28;20049;-82
2024/02/01 09:03:04;;;;;;;2.60;1.88;;;;;;;;;;5068643;28;20080;-81
2024/02/01 09:05:31;;;;;;;3.22;1.77;;;;;;;;;;5049063;28;20136;-81
2024/02/01 09:07:58;;;;;;;14.05;6.57;;;;;;;;;;5061425;28;20351;-81
2024/02/01 09:10:25;;;;;;;4.75;3.58;;;;;;;;;;5036094;28;20044;-81
2024/02/01 09:12:51;;;;;;;3.78;2.42;;;;;;;;;;5053725;28;20059;-82
2024/02/01 09:15:18;;;;;;;3.92;2.53;;;;;;;;;;5041955;28;20132;-81
2024/02/01 09:17:46;;;;;;;6.15;2.88;;;;;;;;;;5057382;28;20052;-80
2024/02/01 09:20:21;;;;;;;4.50;2.92;;;;;;;;;;5053730;28;20503;-78
2024/02/01 09:22:48;;;;;;;6.35;2.45;;;;;;;;;;5055405;28;20058;-79
2024/02/01 09:25:16;;;;;;;5.03;2.80;;;;;;;;;;5052634;28;20080;-78
2024/02/01 09:27:44;;;;;;;2.53;2.22;;;;;;;;;;5048769;28;20095;-78
2024/02/01 09:30:16;;;;;;;4.70;2.20;;;;;;;;;;5053642;28;20045;-78
2024/02/01 09:32:49;;;;;;;4.55;2.22;;;;;;;;;;5059097;28;20115;-79
2024/02/01 09:35:16;;;;;;;3.30;2.13;;;;;;;;;;5056008;28;20076;-83
2024/02/01 09:37:43;;;;;;;4.97;1.45;;;;;;;;;;5035682;28;20049;-78
2024/02/01 09:40:10;;;;;;;3.78;1.88;;;;;;;;;;5054455;28;20051;-78
2024/02/01 09:42:37;;;;;;;2.30;1.10;;;;;;;;;;5036002;28;20426;-78
2024/02/01 09:45:05;;;;;;;3.25;1.50;;;;;;;;;;5036437;28;20552;-79
2024/02/01 09:47:43;;;;;;;1.33;1.10;;;;;;;;;;5035930;28;20049;-78
2024/02/01 09:50:14;;;;;;;2.00;1.17;;;;;;;;;;5055723;28;20041;-78
2024/02/01 09:52:45;;;;;;;2.75;1.42;;;;;;;;;;5051695;28;20049;-78
2024/02/01 09:55:17;;;;;;;1.48;1.20;;;;;;;;;;5045530;28;20073;-78
2024/02/01 09:57:45;;;;;;;2.15;1.38;;;;;;;;;;5045790;28;20112;-78
2024/02/01 10:00:14;;;;;;;1.73;1.25;;;;;;;;;;5053559;28;20057;-78
2024/02/01 10:02:45;;;;;;;1.70;0.95;;;;;;;;;;5051184;28;20068;-77
2024/02/01 10:05:12;;;;;;;2.65;1.30;;;;;;;;;;5051007;28;20057;-78
2024/02/01 10:07:39;;;;;;;1.73;1.27;;;;;;;;;;5044382;28;20063;-78
2024/02/01 10:10:06;;;;;;;2.03;1.20;;;;;;;;;;5042644;28;20495;-78
2024/02/01 10:12:34;;;;;;;1.50;1.33;;;;;;;;;;5041034;28;20045;-78
2024/02/01 10:15:08;;;;;;;3.28;1.48;;;;;;;;;;5053544;28;20116;-78
2024/02/01 10:17:47;;;;;;;2.35;1.40;;;;;;;;;;5059982;28;20053;-78
2024/02/01 10:20:33;;;;;;;2.92;1.40;;;;;;;;;;5061642;28;20059;-77
2024/02/01 10:23:04;;;;;;;1.80;1.20;;;;;;;;;;5042841;28;20060;-78
2024/02/01 10:25:36;;;;;;;4.82;1.20;;;;;;;;;;5039768;28;20137;-78
2024/02/01 10:28:09;;;;;;;1.92;1.50;;;;;;;;;;5077563;28;20530;-77
2024/02/01 10:30:41;;;;;;;2.58;1.60;;;;;;;;;;5057673;28;20057;-77
2024/02/01 10:33:11;;;;;;;3.10;1.63;;;;;;;;;;5052339;28;20088;-78
2024/02/01 10:35:39;;;;;;;3.60;2.03;;;;;;;;;;5052278;28;20542;-77
2024/02/01 10:38:12;;;;;;;3.35;1.35;;;;;;;;;;5047148;28;20161;-77
2024/02/01 10:40:48;;;;;;;3.97;1.95;;;;;;;;;;5048121;28;20087;-77
2024/02/01 10:43:19;;;;;;;3.03;1.63;;;;;;;;;;5037434;28;20044;-78
2024/02/01 10:45:50;;;;;;;3.13;1.70;;;;;;;;;;5045524;28;20088;-77
2024/02/01 10:48:18;;;;;;;2.50;1.42;;;;;;;;;;5034396;28;20045;-77
2024/02/01 10:50:45;;;;;;;3.72;2.05;;;;;;;;;;5052225;28;20577;-77
2024/02/01 10:53:15;;;;;;;7.05;2.20;;;;;;;;;;5052708;28;20110;-78
2024/02/01 10:55:42;;;;;;;1.98;1.40;;;;;;;;;;5034952;28;20080;-78
2024/02/01 10:58:12;;;;;;;3.17;1.67;;;;;;;;;;5059123;28;20107;-77
2024/02/01 11:00:40;;;;;;;1.70;1.40;;;;;;;;;;5038825;28;20079;-78
2024/02/01 11:03:08;;;;;;;1.63;0.90;;;;;;;;;;5047569;28;20207;-77
2024/02/01 11:05:35;;;;;;;1.67;1.10;;;;;;;;;;5049978;28;20107;-77
2024/02/01 11:08:02;;;;;;;1.65;1.35;;;;;;;;;;5038200;28;20511;-77
2024/02/01 11:10:29;;;;;;;1.10;1.00;;;;;;;;;;5047641;28;20092;-77
2024/02/01 11:12:56;;;;;;;2.25;1.15;;;;;;;;;;5048771;28;20044;-77
2024/02/01 11:15:24;;;;;;;2.15;1.50;;;;;;;;;;5047889;28;20060;-76
2024/02/01 11:17:59;;;;;;;3.55;2.35;;;;;;;;;;5037363;28;20410;-77
2024/02/01 11:20:30;;;;;;;2.05;1.20;;;;;;;;;;5035293;28;20049;-77
2024/02/01 11:22:58;;;;;;;2.65;1.45;;;;;;;;;;5051278;28;20098;-78
2024/02/01 11:25:28;;;;;;;1.90;1.50;;;;;;;;;;5038676;28;20044;-77
2024/02/01 11:27:55;;;;;;;1.83;1.30;;;;;;;;;;5032677;28;20163;-77
2024/02/01 11:30:28;;;;;;;2.17;1.25;;;;;;;;;;5028979;28;20083;-77
2024/02/01 11:32:55;;;;;;;2.00;1.13;;;;;;;;;;5033350;28;20049;-77
2024/02/01 11:35:23;;;;;;;2.25;1.30;;;;;;;;;;5051613;28;20053;-80
2024/02/01 11:38:01;;;;;;;1.63;1.42;;;;;;;;;;5024416;28;20045;-78
2024/02/01 11:40:28;;;;;;;1.60;1.30;;;;;;;;;;5024337;28;20087;-77
2024/02/01 11:42:58;;;;;;;1.67;1.08;;;;;;;;;;5041644;28;20120;-77
2024/02/01 11:45:25;;;;;;;1.50;0.90;;;;;;;;;;5034520;28;20129;-79
2024/02/01 11:47:53;;;;;;;1.50;1.23;;;;;;;;;;5033389;28;20065;-76
2024/02/01 11:50:23;;;;;;;2.35;1.35;;;;;;;;;;5029513;28;20037;-76
2024/02/01 11:52:55;;;;;;;3.08;1.48;;;;;;;;;;5044850;28;20045;-76
2024/02/01 11:55:27;;;;;;;2.00;1.60;;;;;;;;;;5026939;28;20053;-76
2024/02/01 11:57:57;;;;;;;1.35;1.25;;;;;;;;;;5036990;28;20053;-76
2024/02/01 12:00:24;;;;;;;1.75;1.42;;;;;;;;;;5031318;28;20583;-76
2024/02/01 12:03:10;;;;;;;1.63;1.42;;;;;;;;;;5039422;28;20147;-76
2024/02/01 12:05:37;;;;;;;1.15;1.05;;;;;;;;;;5028091;28;20049;-76
2024/02/01 12:08:06;;;;;;;1.88;1.30;;;;;;;;;;5043362;28;20049;-75
2024/02/01 12:10:34;;;;;;;2.47;1.60;;;;;;;;;;5028819;28;20057;-76
2024/02/01 12:13:01;;;;;;;2.28;1.67;;;;;;;;;;5044007;28;20073;-76
2024/02/01 12:15:28;;;;;;;2.72;1.58;;;;;;;;;;5045723;28;20055;-76
2024/02/01 12:17:58;;;;;;;7.45;1.23;;;;;;;;;;5030636;28;20517;-75
2024/02/01 12:20:28;;;;;;;1.30;1.20;;;;;;;;;;5047417;28;20395;-75
2024/02/01 12:22:59;;;;;;;1.52;1.40;;;;;;;;;;5032822;28;20144;-76
2024/02/01 12:25:30;;;;;;;1.40;1.30;;;;;;;;;;5050648;28;20045;-81
2024/02/01 12:27:57;;;;;;;1.17;1.05;;;;;;;;;;5036743;28;20061;-79
2024/02/01 12:30:26;;;;;;;1.83;1.20;;;;;;;;;;5030979;28;20073;-79
2024/02/01 12:32:54;;;;;;;1.25;1.15;;;;;;;;;;5057283;28;20083;-79
2024/02/01 12:35:21;;;;;;;1.27;1.10;;;;;;;;;;5039057;28;20099;-77
2024/02/01 12:37:48;;;;;;;2.75;1.20;;;;;;;;;;5049724;28;20056;-77
2024/02/01 12:40:23;;;;;;;0.82;0.82;;;;;;;;;;5047348;28;20053;-77
2024/02/01 12:42:53;;;;;;;1.80;1.27;;;;;;;;;;5049443;28;20087;-77
2024/02/01 12:45:20;;;;;;;1.38;1.23;;;;;;;;;;5034487;28;20053;-77
2024/02/01 12:47:48;;;;;;;1.40;1.27;;;;;;;;;;5036358;28;20439;-77
2024/02/01 12:50:15;;;;;;;1.65;1.30;;;;;;;;;;5056052;28;20408;-77
2024/02/01 12:52:43;;;;;;;1.90;1.30;;;;;;;;;;5037614;28;20061;-76
2024/02/01 12:55:10;;;;;;;1.45;1.30;;;;;;;;;;5162490;23;20586;-76
2024/02/01 12:57:37;;;;;;;2.47;1.55;;;;;;;;;;5046538;28;20048;-77
2024/02/01 13:00:05;;;;;;;2.28;1.80;;;;;;;;;;5032555;28;20140;-77
2024/02/01 13:02:32;;;;;;;1.83;1.42;;;;;;;;;;5057718;28;20057;-77
2024/02/01 13:04:59;;;;;;;2.28;1.55;;;;;;;;;;5048454;28;20140;-77
2024/02/01 13:07:26;;;;;;;3.00;2.08;;;;;;;;;;5031616;28;20057;-77
2024/02/01 13:09:53;;;;;;;1.98;1.77;;;;;;;;;;5049168;28;20164;-77
2024/02/01 13:12:23;;;;;;;2.00;1.80;;;;;;;;;;5048233;28;20045;-77
2024/02/01 13:14:59;;;;;;;2.97;1.80;;;;;;;;;;5061474;28;20135;-76
2024/02/01 13:17:30;;;;;;;2.13;1.90;;;;;;;;;;5043873;28;20131;-77
2024/02/01 13:19:58;;;;;;;2.30;2.10;;;;;;;;;;5043988;28;20081;-76
2024/02/01 13:22:25;;;;;;;3.67;1.98;;;;;;;;;;5050004;28;20080;-76
2024/02/01 13:24:52;;;;;;;3.85;2.25;;;;;;;;;;5022909;28;20080;-76
2024/02/01 13:27:19;;;;;;;2.72;2.17;;;;;;;;;;5033496;28;20060;-78
2024/02/01 13:29:46;;;;;;;3.00;2.65;;;;;;;;;;5045395;28;20088;-77
2024/02/01 13:32:14;;;;;;;2.38;2.17;;;;;;;;;;5029872;28;20056;-78
2024/02/01 13:34:41;;;;;;;4.55;2.10;;;;;;;;;;5053603;28;20107;-77
2024/02/01 13:37:13;;;;;;;4.32;2.47;;;;;;;;;;5034368;28;20426;-76
2024/02/01 13:39:43;;;;;;;3.75;2.47;;;;;;;;;;5033152;28;20048;-77
2024/02/01 13:42:10;;;;;;;2.25;1.85;;;;;;;;;;5045432;28;20107;-77
2024/02/01 13:44:38;;;;;;;3.35;2.83;;;;;;;;;;5046017;28;20049;-77
2024/02/01 13:47:05;;;;;;;3.42;2.35;;;;;;;;;;5043170;28;20270;-77
2024/02/01 13:49:33;;;;;;;4.10;2.63;;;;;;;;;;5048336;28;20514;-76
2024/02/01 13:52:00;;;;;;;3.45;2.28;;;;;;;;;;5049195;28;20128;-77
2024/02/01 13:54:27;;;;;;;2.67;2.47;;;;;;;;;;5041083;28;20175;-77
2024/02/01 13:56:54;;;;;;;2.85;2.40;;;;;;;;;;5046826;28;20064;-76
2024/02/01 13:59:21;;;;;;;3.47;3.17;;;;;;;;;;5047652;28;20053;-77
2024/02/01 14:01:47;;;;;;;5.80;3.40;;;;;;;;;;5040744;28;20053;-77
2024/02/01 14:04:14;;;;;;;3.97;3.10;;;;;;;;;;5045293;28;20148;-76
2024/02/01 14:06:41;;;;;;;3.75;2.92;;;;;;;;;;5030559;28;20059;-77
2024/02/01 14:09:09;;;;;;;5.18;3.30;;;;;;;;;;5044081;28;20056;-76
2024/02/01 14:11:39;;;;;;;3.30;3.00;;;;;;;;;;5045548;28;20053;-76
2024/02/01 14:14:06;;;;;;;3.00;2.70;;;;;;;;;;5057988;28;20103;-76
2024/02/01 14:16:35;;;;;;;4.63;3.88;;;;;;;;;;5026304;28;20088;-76
2024/02/01 14:19:02;;;;;;;4.35;3.25;;;;;;;;;;5042038;28;20142;-76
2024/02/01 14:21:29;;;;;;;5.35;3.85;;;;;;;;;;5047116;28;20045;-76
2024/02/01 14:24:00;;;;;;;5.07;4.03;;;;;;;;;;5049493;28;20052;-76
2024/02/01 14:26:27;;;;;;;4.70;4.15;;;;;;;;;;5044073;28;20044;-77
2024/02/01 14:28:54;;;;;;;6.63;3.97;;;;;;;;;;5038723;28;20145;-77
2024/02/01 14:31:22;;;;;;;5.43;4.60;;;;;;;;;;5046442;28;20077;-76
2024/02/01 14:33:49;;;;;;;6.60;4.95;;;;;;;;;;5030673;28;20049;-77
2024/02/01 14:36:17;;;;;;;6.15;4.70;;;;;;;;;;5029017;28;20049;-77
2024/02/01 14:38:46;;;;;;;5.82;5.18;;;;;;;;;;5040390;28;20529;-76
2024/02/01 14:41:13;;;;;;;7.43;5.95;;;;;;;;;;5027317;28;20080;-76
2024/02/01 14:43:39;;;;;;;6.50;5.82;;;;;;;;;;5048570;28;20135;-76
2024/02/01 14:46:06;;;;;;;7.60;6.43;;;;;;;;;;5026899;28;20149;-77
2024/02/01 14:48:32;;;;;;;6.78;5.30;;;;;;;;;;5048497;28;20057;-79
2024/02/01 14:50:59;;;;;;;6.03;5.32;;;;;;;;;;5048588;28;20044;-78
2024/02/01 14:53:27;;;;;;;7.50;5.70;;;;;;;;;;5047885;28;20052;-77
2024/02/01 14:55:54;;;;;;;9.55;6.25;;;;;;;;;;5046252;28;20049;-77
2024/02/01 14:58:20;;;;;;;7.50;6.03;;;;;;;;;;5028150;28;20082;-77
2024/02/01 15:00:50;;;;;;;7.13;5.68;;;;;;;;;;5022411;28;20122;-77
2024/02/01 15:03:17;;;;;;;7.00;5.93;;;;;;;;;;5034375;28;20060;-77
2024/02/01 15:05:44;;;;;;;6.50;5.80;;;;;;;;;;5081377;28;20057;-76
2024/02/01 15:08:11;;;;;;;8.63;6.20;;;;;;;;;;5031481;28;20596;-76
2024/02/01 15:10:39;;;;;;;8.07;5.88;;;;;;;;;;5046085;28;20159;-77
2024/02/01 15:13:05;;;;;;;9.77;6.45;;;;;;;;;;5048316;28;20052;-78
2024/02/01 15:15:34;;;;;;;10.38;6.55;;;;;;;;;;5045979;28;20098;-77
2024/02/01 15:18:01;;;;;;;7.90;6.45;;;;;;;;;;5040733;28;20045;-77
2024/02/01 15:20:33;;;;;;;9.68;6.80;;;;;;;;;;5027179;28;20091;-77
2024/02/01 15:23:04;;;;;;;8.98;6.63;;;;;;;;;;5050179;28;20565;-77
2024/02/01 15:25:38;;;;;;;11.38;7.07;;;;;;;;;;5039479;28;20044;-77